createdAt,value
2023-06-30T00:01:49.934Z,16.08
2023-06-30T00:04:19.260Z,14.23
2023-06-30T00:06:58.075Z,14.68
2023-06-30T00:09:25.879Z,15.80
2023-06-30T00:11:55.707Z,13.98
2023-06-30T00:14:23.457Z,16.05
2023-06-30T00:16:51.128Z,14.05
2023-06-30T00:19:20.107Z,13.95
2023-06-30T00:24:16.603Z,12.60
2023-06-30T00:26:43.736Z,16.50
2023-06-30T00:29:11.598Z,13.13
2023-06-30T00:31:38.799Z,14.43
2023-06-30T00:34:06.221Z,17.75
2023-06-30T00:36:33.421Z,13.65
2023-06-30T00:39:01.608Z,18.85
2023-06-30T00:41:30.139Z,15.07
2023-06-30T00:43:59.609Z,14.88
2023-06-30T00:46:27.415Z,16.58
2023-06-30T00:48:57.938Z,16.05
2023-06-30T00:51:25.383Z,15.63
2023-06-30T00:53:52.756Z,18.02
2023-06-30T00:56:20.355Z,15.80
2023-06-30T00:58:47.670Z,19.30
2023-06-30T01:01:40.415Z,20.80
2023-06-30T01:04:19.688Z,19.08
2023-06-30T01:07:18.522Z,18.55
2023-06-30T01:09:58.333Z,17.02
2023-06-30T01:12:27.040Z,18.50
2023-06-30T01:14:55.629Z,20.33
2023-06-30T01:17:26.315Z,22.02
2023-06-30T01:19:55.566Z,21.52
2023-06-30T01:22:42.335Z,23.40
2023-06-30T01:25:23.724Z,27.42
2023-06-30T01:27:51.922Z,22.38
2023-06-30T01:30:20.665Z,21.48
2023-06-30T01:32:51.768Z,20.80
2023-06-30T01:35:19.001Z,21.95
2023-06-30T01:37:46.153Z,26.70
2023-06-30T01:40:13.525Z,23.70
2023-06-30T01:42:41.408Z,25.15
2023-06-30T01:45:10.997Z,22.63
2023-06-30T01:47:38.436Z,19.77
2023-06-30T01:50:07.147Z,22.00
2023-06-30T01:52:34.458Z,19.90
2023-06-30T01:55:02.808Z,21.67
2023-06-30T01:57:32.410Z,22.45
2023-06-30T01:59:59.743Z,22.15
2023-06-30T02:02:26.973Z,36.70
2023-06-30T02:04:54.153Z,25.83
2023-06-30T02:07:21.713Z,22.67
2023-06-30T02:09:49.388Z,24.55
2023-06-30T02:12:17.009Z,25.50
2023-06-30T02:14:44.571Z,24.73
2023-06-30T02:17:12.719Z,26.73
2023-06-30T02:19:40.210Z,25.35
2023-06-30T02:22:07.478Z,22.88
2023-06-30T02:24:34.967Z,19.92
2023-06-30T02:27:02.135Z,22.25
2023-06-30T02:29:32.498Z,24.17
2023-06-30T02:31:59.658Z,25.63
2023-06-30T02:34:26.794Z,26.40
2023-06-30T02:36:54.085Z,24.73
2023-06-30T02:39:21.190Z,26.27
2023-06-30T02:41:48.349Z,23.13
2023-06-30T02:44:15.590Z,27.15
2023-06-30T02:46:42.798Z,31.42
2023-06-30T02:49:09.958Z,24.33
2023-06-30T02:51:37.131Z,24.60
2023-06-30T02:54:05.084Z,23.77
2023-06-30T02:56:34.016Z,22.55
2023-06-30T02:59:01.275Z,23.65
2023-06-30T03:01:28.535Z,25.80
2023-06-30T03:03:56.165Z,24.15
2023-06-30T03:06:27.422Z,20.52
2023-06-30T03:08:54.602Z,19.85
2023-06-30T03:11:26.442Z,21.45
2023-06-30T03:13:54.571Z,21.70
2023-06-30T03:16:23.200Z,20.20
2023-06-30T03:18:50.280Z,20.40
2023-06-30T03:21:17.497Z,22.33
2023-06-30T03:23:44.871Z,18.50
2023-06-30T03:26:12.064Z,20.75
2023-06-30T03:28:39.647Z,19.38
2023-06-30T03:31:08.095Z,22.63
2023-06-30T03:33:35.739Z,20.85
2023-06-30T03:36:02.896Z,21.70
2023-06-30T03:38:30.138Z,21.65
2023-06-30T03:40:57.415Z,25.27
2023-06-30T03:43:27.799Z,26.20
2023-06-30T03:45:54.967Z,23.40
2023-06-30T03:48:22.798Z,24.15
2023-06-30T03:50:53.821Z,25.30
2023-06-30T03:53:23.450Z,26.90
2023-06-30T03:55:50.577Z,26.65
2023-06-30T03:58:17.767Z,27.27
2023-06-30T04:00:45.048Z,25.65
2023-06-30T04:03:13.000Z,30.23
2023-06-30T04:05:40.185Z,26.38
2023-06-30T04:08:08.050Z,28.20
2023-06-30T04:10:35.251Z,25.33
2023-06-30T04:13:06.101Z,34.85
2023-06-30T04:15:33.293Z,38.08
2023-06-30T04:18:00.423Z,36.13
2023-06-30T04:20:28.160Z,29.15
2023-06-30T04:22:55.469Z,27.33
2023-06-30T04:25:22.893Z,26.17
2023-06-30T04:27:50.032Z,25.45
2023-06-30T04:30:17.243Z,25.58
2023-06-30T04:32:44.498Z,20.60
2023-06-30T04:35:11.867Z,20.42
2023-06-30T04:37:41.999Z,18.42
2023-06-30T04:40:10.158Z,15.88
2023-06-30T04:42:40.432Z,19.23
2023-06-30T04:45:08.006Z,15.77
2023-06-30T04:47:35.246Z,18.02
2023-06-30T04:50:02.601Z,19.30
2023-06-30T04:52:31.144Z,17.48
2023-06-30T04:54:58.435Z,23.45
2023-06-30T04:57:25.762Z,18.67
2023-06-30T04:59:55.410Z,18.80
2023-06-30T05:02:22.691Z,19.50
2023-06-30T05:04:50.503Z,15.52
2023-06-30T05:07:17.665Z,17.30
2023-06-30T05:09:45.434Z,18.30
2023-06-30T05:12:14.132Z,19.05
2023-06-30T05:14:41.245Z,19.77
2023-06-30T05:17:08.420Z,20.10
2023-06-30T05:19:35.627Z,20.98
2023-06-30T05:22:02.906Z,18.75
2023-06-30T05:24:30.382Z,17.83
2023-06-30T05:26:57.649Z,19.67
2023-06-30T05:29:24.926Z,20.27
2023-06-30T05:31:52.943Z,21.45
2023-06-30T05:34:20.152Z,23.88
2023-06-30T05:36:47.308Z,17.85
2023-06-30T05:39:15.556Z,16.95
2023-06-30T05:41:42.932Z,19.83
2023-06-30T05:44:10.913Z,18.85
2023-06-30T05:46:41.199Z,20.75
2023-06-30T05:49:08.429Z,23.35
2023-06-30T05:51:36.767Z,26.63
2023-06-30T05:54:04.337Z,22.50
2023-06-30T05:56:32.548Z,23.55
2023-06-30T05:59:00.111Z,22.20
2023-06-30T06:01:27.439Z,20.40
2023-06-30T06:03:55.281Z,21.65
2023-06-30T06:06:23.932Z,32.42
2023-06-30T06:08:51.149Z,22.77
2023-06-30T06:11:18.432Z,21.35
2023-06-30T06:13:45.660Z,24.77
2023-06-30T06:16:12.882Z,22.77
2023-06-30T06:18:40.296Z,29.23
2023-06-30T06:21:07.418Z,24.45
2023-06-30T06:23:34.536Z,25.77
2023-06-30T06:26:05.216Z,25.73
2023-06-30T06:28:32.370Z,25.77
2023-06-30T06:30:59.690Z,34.17
2023-06-30T06:33:27.141Z,26.42
2023-06-30T06:35:54.487Z,26.75
2023-06-30T06:38:21.726Z,24.65
2023-06-30T06:40:49.029Z,18.33
2023-06-30T06:43:16.324Z,18.60
2023-06-30T06:45:44.432Z,21.90
2023-06-30T06:48:20.216Z,18.65
2023-06-30T06:50:49.683Z,18.33
2023-06-30T06:53:22.804Z,23.80
2023-06-30T06:55:51.667Z,22.42
2023-06-30T06:58:19.872Z,30.10
2023-06-30T07:00:48.439Z,21.10
2023-06-30T07:03:16.659Z,24.38
2023-06-30T07:05:47.703Z,18.60
2023-06-30T07:08:16.569Z,18.85
2023-06-30T07:10:47.586Z,21.45
2023-06-30T07:13:19.627Z,21.98
2023-06-30T07:15:49.091Z,29.15
2023-06-30T07:18:20.436Z,20.83
2023-06-30T07:20:52.201Z,20.27
2023-06-30T07:23:20.152Z,16.58
2023-06-30T07:25:48.430Z,17.00
2023-06-30T07:28:16.189Z,17.60
2023-06-30T07:30:46.428Z,18.08
2023-06-30T07:33:14.408Z,17.45
2023-06-30T07:35:42.116Z,14.70
2023-06-30T07:38:09.442Z,13.85
2023-06-30T07:43:07.032Z,12.55
2023-06-30T07:45:34.212Z,15.23
2023-06-30T07:48:01.489Z,14.30
2023-06-30T07:50:29.164Z,14.00
2023-06-30T07:52:56.302Z,14.45
2023-06-30T07:55:24.203Z,16.95
2023-06-30T07:57:52.404Z,19.00
2023-06-30T08:00:20.010Z,24.20
2023-06-30T08:02:48.368Z,19.50
2023-06-30T08:05:16.055Z,18.27
2023-06-30T08:07:48.310Z,10.98
2023-06-30T08:10:17.571Z,23.48
2023-06-30T08:12:46.089Z,14.73
2023-06-30T08:15:13.364Z,19.38
2023-06-30T08:17:53.522Z,15.32
2023-06-30T08:20:26.825Z,15.80
2023-06-30T08:22:55.908Z,14.30
2023-06-30T08:27:51.833Z,14.00
2023-06-30T08:30:21.108Z,14.05
2023-06-30T08:32:51.265Z,15.63
2023-06-30T08:35:18.538Z,15.13
2023-06-30T08:37:47.564Z,14.95
2023-06-30T08:40:22.681Z,23.38
2023-06-30T08:42:54.248Z,25.70
2023-06-30T08:45:26.099Z,23.27
2023-06-30T08:47:54.290Z,25.70
2023-06-30T08:50:23.601Z,26.80
2023-06-30T08:52:51.824Z,26.23
2023-06-30T08:55:18.960Z,24.70
2023-06-30T08:57:47.361Z,21.38
2023-06-30T09:00:16.021Z,22.52
2023-06-30T09:02:45.116Z,20.98
2023-06-30T09:05:13.820Z,20.65
2023-06-30T09:07:57.212Z,20.85
2023-06-30T09:10:29.274Z,19.65
2023-06-30T09:12:58.587Z,21.55
2023-06-30T09:15:26.558Z,19.77
2023-06-30T09:17:54.730Z,17.17
2023-06-30T09:20:23.070Z,20.70
2023-06-30T09:22:51.608Z,18.98
2023-06-30T09:25:28.811Z,21.92
2023-06-30T09:27:57.050Z,14.90
2023-06-30T09:30:33.863Z,16.55
2023-06-30T09:33:01.323Z,17.38
2023-06-30T09:35:46.220Z,18.25
2023-06-30T09:38:16.051Z,18.77
2023-06-30T09:40:52.712Z,17.05
2023-06-30T09:43:21.894Z,18.08
2023-06-30T09:45:56.725Z,16.40
2023-06-30T09:48:36.259Z,16.83
2023-06-30T09:51:03.726Z,17.48
2023-06-30T09:53:41.720Z,16.70
2023-06-30T09:56:13.397Z,16.17
2023-06-30T09:58:40.726Z,18.95
2023-06-30T10:01:08.726Z,18.70
2023-06-30T10:03:46.852Z,16.65
2023-06-30T10:06:14.243Z,18.65
2023-06-30T10:08:41.497Z,18.23
2023-06-30T10:11:09.606Z,15.23
2023-06-30T10:13:37.290Z,15.35
2023-06-30T10:16:06.654Z,14.85
2023-06-30T10:18:42.942Z,18.92
2023-06-30T10:21:10.110Z,15.98
2023-06-30T10:23:38.670Z,18.33
2023-06-30T10:26:07.709Z,17.30
2023-06-30T10:31:03.882Z,15.98
2023-06-30T10:33:31.183Z,14.43
2023-06-30T10:36:00.363Z,13.63
2023-06-30T10:41:21.377Z,15.05
2023-06-30T10:44:08.187Z,15.30
2023-06-30T10:46:57.518Z,14.18
2023-06-30T10:49:27.503Z,16.00
2023-06-30T10:51:56.392Z,12.50
2023-06-30T10:54:31.569Z,12.80
2023-06-30T10:57:20.822Z,15.88
2023-06-30T11:00:03.135Z,19.95
2023-06-30T11:02:36.218Z,25.75
2023-06-30T11:05:29.978Z,20.77
2023-06-30T11:08:03.210Z,13.25
2023-06-30T11:10:33.604Z,19.10
2023-06-30T11:13:03.088Z,15.00
2023-06-30T11:15:45.636Z,13.68
2023-06-30T11:18:23.323Z,12.18
2023-06-30T11:21:04.360Z,12.25
2023-06-30T11:23:41.265Z,11.80
2023-06-30T11:26:19.317Z,11.35
2023-06-30T11:28:52.072Z,12.80
2023-06-30T11:31:19.507Z,10.93
2023-06-30T11:33:47.176Z,13.60
2023-06-30T11:36:19.178Z,10.90
2023-06-30T11:38:51.121Z,13.07
2023-06-30T11:41:20.779Z,14.27
2023-06-30T11:46:19.084Z,13.30
2023-06-30T11:48:46.232Z,13.50
2023-06-30T11:51:13.776Z,14.65
2023-06-30T11:53:44.526Z,12.82
2023-06-30T11:56:11.732Z,13.48
2023-06-30T11:58:43.814Z,13.32
2023-06-30T12:01:10.955Z,19.30
2023-06-30T12:03:38.178Z,15.80
2023-06-30T12:06:05.800Z,12.93
2023-06-30T12:08:36.570Z,17.73
2023-06-30T12:11:08.303Z,17.63
2023-06-30T12:13:35.550Z,19.17
2023-06-30T12:16:04.487Z,18.50
2023-06-30T12:20:59.052Z,15.88
2023-06-30T12:23:29.905Z,19.38
2023-06-30T12:25:58.292Z,19.90
2023-06-30T12:28:25.431Z,17.80
2023-06-30T12:30:52.629Z,18.38
2023-06-30T12:33:23.525Z,18.30
2023-06-30T12:35:51.313Z,17.25
2023-06-30T12:38:19.348Z,18.27
2023-06-30T12:40:46.785Z,17.67
2023-06-30T12:43:14.088Z,14.93
2023-06-30T12:45:41.258Z,15.25
2023-06-30T12:48:08.383Z,19.20
2023-06-30T12:50:35.756Z,22.00
2023-06-30T12:53:03.346Z,16.35
2023-06-30T12:55:30.745Z,15.32
2023-06-30T12:57:57.839Z,18.10
2023-06-30T13:00:24.936Z,18.60
2023-06-30T13:02:52.095Z,14.07
2023-06-30T13:05:19.508Z,15.55
2023-06-30T13:07:46.648Z,10.60
2023-06-30T13:10:14.984Z,12.60
2023-06-30T13:12:42.438Z,19.00
2023-06-30T13:15:10.566Z,14.27
2023-06-30T13:17:37.953Z,7.38
2023-06-30T13:20:06.307Z,8.32
2023-06-30T13:22:34.054Z,6.97
2023-06-30T13:25:02.569Z,8.43
2023-06-30T13:27:32.366Z,7.18
2023-06-30T13:30:00.362Z,11.63
2023-06-30T13:32:27.655Z,6.05
2023-06-30T13:34:56.055Z,5.75
2023-06-30T13:37:23.254Z,7.57
2023-06-30T13:39:50.449Z,9.05
2023-06-30T13:42:17.576Z,8.30
2023-06-30T13:44:45.145Z,7.82
2023-06-30T13:47:12.301Z,9.30
2023-06-30T13:49:39.453Z,8.00
2023-06-30T13:52:06.933Z,9.55
2023-06-30T13:54:36.590Z,14.18
2023-06-30T13:57:03.994Z,7.95
2023-06-30T13:59:31.189Z,12.23
2023-06-30T14:01:58.474Z,10.15
2023-06-30T14:04:28.997Z,8.73
2023-06-30T14:07:05.857Z,8.25
2023-06-30T14:09:33.150Z,8.52
2023-06-30T14:12:00.481Z,8.05
2023-06-30T14:14:27.630Z,7.30
2023-06-30T14:16:54.934Z,8.15
2023-06-30T14:19:22.093Z,10.30
2023-06-30T14:21:49.379Z,8.65
2023-06-30T14:24:16.594Z,7.15
2023-06-30T14:26:43.753Z,10.52
2023-06-30T14:29:10.993Z,8.38
2023-06-30T14:31:38.246Z,10.07
2023-06-30T14:34:05.455Z,13.23
2023-06-30T14:36:32.555Z,9.27
2023-06-30T14:38:59.697Z,9.68
2023-06-30T14:41:26.904Z,9.70
2023-06-30T14:43:54.245Z,8.60
2023-06-30T14:46:21.487Z,8.25
2023-06-30T14:48:50.015Z,11.50
2023-06-30T14:51:17.254Z,9.45
2023-06-30T14:53:44.868Z,9.82
2023-06-30T14:56:12.967Z,11.20
2023-06-30T14:58:40.160Z,8.05
2023-06-30T15:01:07.476Z,10.63
2023-06-30T15:03:34.806Z,9.35
2023-06-30T15:06:02.244Z,11.57
2023-06-30T15:08:29.422Z,10.23
2023-06-30T15:10:56.581Z,9.25
2023-06-30T15:13:24.002Z,12.38
2023-06-30T15:15:52.126Z,10.85
2023-06-30T15:18:19.331Z,10.43
2023-06-30T15:20:48.687Z,16.02
2023-06-30T15:23:16.078Z,10.07
2023-06-30T15:25:43.353Z,10.35
2023-06-30T15:28:10.660Z,10.18
2023-06-30T15:30:37.791Z,9.38
2023-06-30T15:33:08.457Z,18.08
2023-06-30T15:35:36.213Z,16.20
2023-06-30T15:38:04.367Z,15.10
2023-06-30T15:40:33.592Z,9.55
2023-06-30T15:43:02.705Z,10.25
2023-06-30T15:45:31.268Z,9.98
2023-06-30T15:47:58.988Z,11.88
2023-06-30T15:50:26.686Z,10.00
2023-06-30T15:52:53.857Z,10.35
2023-06-30T15:55:21.651Z,11.77
2023-06-30T15:57:48.869Z,11.05
2023-06-30T16:00:16.442Z,11.27
2023-06-30T16:02:43.752Z,14.35
2023-06-30T16:05:11.294Z,11.57
2023-06-30T16:07:38.995Z,10.63
2023-06-30T16:10:06.776Z,11.52
2023-06-30T16:12:34.693Z,10.32
2023-06-30T16:15:05.154Z,10.88
2023-06-30T16:17:36.685Z,9.43
2023-06-30T16:20:05.998Z,16.67
2023-06-30T16:22:35.287Z,11.82
2023-06-30T16:25:02.697Z,19.55
2023-06-30T16:27:34.010Z,12.98
2023-06-30T16:30:31.725Z,9.45
2023-06-30T16:32:59.693Z,13.68
2023-06-30T16:35:28.608Z,11.38
2023-06-30T16:37:58.235Z,18.98
2023-06-30T16:40:25.549Z,13.68
2023-06-30T16:42:54.031Z,17.65
2023-06-30T16:45:21.669Z,14.55
2023-06-30T16:47:49.120Z,13.68
2023-06-30T16:50:16.801Z,15.05
2023-06-30T16:52:44.301Z,13.32
2023-06-30T16:55:12.477Z,17.77
2023-06-30T16:57:40.439Z,13.85
2023-06-30T17:00:09.692Z,13.88
2023-06-30T17:02:39.048Z,13.55
2023-06-30T17:05:07.419Z,14.30
2023-06-30T17:07:35.711Z,12.45
2023-06-30T17:10:05.863Z,13.52
2023-06-30T17:12:34.885Z,17.20
2023-06-30T17:15:02.881Z,13.63
2023-06-30T17:17:33.989Z,14.57
2023-06-30T17:20:03.900Z,15.18
2023-06-30T17:22:33.411Z,16.20
2023-06-30T17:25:05.435Z,15.77
2023-06-30T17:27:34.261Z,16.73
2023-06-30T17:30:01.626Z,15.98
2023-06-30T17:32:33.704Z,17.02
2023-06-30T17:35:01.029Z,16.75
2023-06-30T17:37:30.324Z,15.07
2023-06-30T17:39:57.553Z,18.95
2023-06-30T17:42:25.122Z,17.15
2023-06-30T17:44:52.349Z,15.73
2023-06-30T17:47:20.645Z,13.68
2023-06-30T17:49:48.442Z,20.38
2023-06-30T17:52:16.376Z,17.35
2023-06-30T17:54:43.708Z,14.85
2023-06-30T17:57:10.850Z,16.27
2023-06-30T17:59:37.970Z,16.38
2023-06-30T18:02:06.469Z,16.90
2023-06-30T18:04:34.041Z,16.55
2023-06-30T18:07:13.845Z,14.10
2023-06-30T18:09:43.557Z,13.32
2023-06-30T18:12:12.130Z,17.50
2023-06-30T18:14:39.953Z,14.48
2023-06-30T18:17:07.193Z,17.45
2023-06-30T18:19:34.384Z,16.65
2023-06-30T18:22:01.580Z,14.82
2023-06-30T18:24:28.871Z,15.07
2023-06-30T18:26:56.097Z,19.33
2023-06-30T18:29:27.103Z,14.20
2023-06-30T18:31:57.354Z,15.75
2023-06-30T18:34:26.617Z,15.65
2023-06-30T18:36:53.954Z,14.88
2023-06-30T18:39:21.420Z,14.02
2023-06-30T18:41:48.793Z,17.33
2023-06-30T18:44:16.402Z,19.33
2023-06-30T18:46:43.959Z,15.15
2023-06-30T18:49:12.985Z,15.52
2023-06-30T18:51:43.056Z,13.48
2023-06-30T18:54:10.977Z,17.67
2023-06-30T18:56:38.812Z,16.58
2023-06-30T18:59:06.367Z,20.13
2023-06-30T19:01:34.561Z,14.35
2023-06-30T19:04:02.515Z,15.00
2023-06-30T19:06:30.186Z,19.70
2023-06-30T19:08:57.403Z,16.02
2023-06-30T19:11:24.765Z,15.40
2023-06-30T19:13:52.371Z,18.30
2023-06-30T19:16:20.000Z,16.85
2023-06-30T19:18:47.507Z,19.17
2023-06-30T19:21:15.658Z,13.05
2023-06-30T19:23:43.191Z,28.55
2023-06-30T19:26:11.982Z,15.00
2023-06-30T19:28:42.390Z,14.10
2023-06-30T19:31:09.663Z,14.93
2023-06-30T19:33:38.129Z,17.88
2023-06-30T19:36:06.169Z,19.42
2023-06-30T19:38:33.829Z,17.50
2023-06-30T19:41:01.064Z,16.55
2023-06-30T19:43:28.290Z,15.82
2023-06-30T19:45:55.569Z,14.73
2023-06-30T19:48:22.791Z,14.05
2023-06-30T19:50:50.131Z,14.95
2023-06-30T19:53:17.687Z,15.20
2023-06-30T19:55:46.035Z,16.25
2023-06-30T20:03:09.241Z,16.08
2023-06-30T20:05:37.050Z,15.30
2023-06-30T20:08:04.963Z,19.92
2023-06-30T20:10:32.254Z,14.85
2023-06-30T20:13:02.320Z,17.73
2023-06-30T20:15:29.809Z,16.23
2023-06-30T20:17:57.081Z,15.65
2023-06-30T20:20:24.369Z,17.45
2023-06-30T20:23:01.823Z,17.60
2023-06-30T20:25:29.100Z,17.05
2023-06-30T20:27:56.360Z,17.05
2023-06-30T20:30:23.554Z,18.35
2023-06-30T20:32:50.924Z,22.42
2023-06-30T20:35:20.246Z,18.85
2023-06-30T20:37:50.117Z,19.45
2023-06-30T20:40:17.284Z,19.98
2023-06-30T20:42:44.710Z,18.25
2023-06-30T20:45:12.184Z,16.90
2023-06-30T20:47:40.000Z,24.13
2023-06-30T20:50:09.341Z,25.20
2023-06-30T20:52:37.148Z,17.15
2023-06-30T20:55:04.540Z,22.02
2023-06-30T20:57:31.981Z,17.70
2023-06-30T20:59:59.328Z,18.23
2023-06-30T21:02:26.451Z,18.75
2023-06-30T21:04:55.745Z,22.20
2023-06-30T21:07:23.045Z,19.25
2023-06-30T21:09:50.204Z,17.90
2023-06-30T21:12:17.646Z,20.73
2023-06-30T21:14:47.798Z,21.15
2023-06-30T21:17:16.466Z,19.60
2023-06-30T21:19:43.605Z,19.40
2023-06-30T21:22:10.900Z,21.45
2023-06-30T21:24:38.268Z,19.92
2023-06-30T21:27:05.915Z,19.75
2023-06-30T21:29:33.084Z,18.45
2023-06-30T21:32:00.957Z,16.52
2023-06-30T21:34:28.148Z,20.20
2023-06-30T21:36:55.328Z,17.83
2023-06-30T21:39:22.491Z,17.88
2023-06-30T21:41:49.673Z,16.63
2023-06-30T21:44:16.908Z,14.95
2023-06-30T21:46:44.216Z,18.10
2023-06-30T21:49:11.506Z,17.92
2023-06-30T21:51:38.720Z,16.25
2023-06-30T21:54:06.802Z,18.08
2023-06-30T21:56:34.634Z,21.55
2023-06-30T21:59:03.163Z,17.45
2023-06-30T22:01:39.855Z,16.73
2023-06-30T22:04:08.104Z,17.23
2023-06-30T22:06:35.477Z,16.95
2023-06-30T22:09:07.453Z,16.08
2023-06-30T22:11:42.632Z,14.50
2023-06-30T22:14:09.885Z,12.45
2023-06-30T22:16:36.957Z,15.15
2023-06-30T22:19:04.083Z,13.00
2023-06-30T22:21:31.148Z,14.05
2023-06-30T22:23:58.365Z,10.23
2023-06-30T22:26:25.494Z,10.73
2023-06-30T22:28:52.662Z,11.50
2023-06-30T22:31:19.796Z,11.88
2023-06-30T22:33:46.908Z,11.57
2023-06-30T22:36:14.310Z,10.38
2023-06-30T22:38:41.420Z,13.30
2023-06-30T22:41:08.620Z,10.63
2023-06-30T22:43:35.725Z,12.05
2023-06-30T22:46:02.904Z,12.98
2023-06-30T22:48:30.096Z,10.75
2023-06-30T22:50:58.804Z,15.38
2023-06-30T22:53:25.953Z,11.80
2023-06-30T22:55:53.144Z,10.75
2023-06-30T22:58:20.257Z,13.95
2023-06-30T23:00:47.610Z,12.75
2023-06-30T23:03:15.077Z,13.02
2023-06-30T23:05:42.223Z,12.43
2023-06-30T23:08:09.478Z,13.45
2023-06-30T23:10:36.574Z,13.07
2023-06-30T23:13:03.744Z,11.27
2023-06-30T23:15:30.856Z,14.00
2023-06-30T23:17:58.051Z,10.85
2023-06-30T23:20:25.645Z,11.23
2023-06-30T23:22:52.918Z,11.63
2023-06-30T23:25:24.288Z,13.18
2023-06-30T23:27:55.575Z,11.73
2023-06-30T23:30:27.045Z,9.50
2023-06-30T23:32:58.592Z,10.60
2023-06-30T23:35:26.843Z,13.65
2023-06-30T23:37:54.225Z,12.85
2023-06-30T23:40:21.461Z,12.32
2023-06-30T23:42:48.923Z,10.95
2023-06-30T23:45:16.130Z,14.48
2023-06-30T23:47:43.319Z,13.52
2023-06-30T23:50:11.511Z,16.25
2023-06-30T23:52:38.634Z,14.00
2023-06-30T23:55:06.625Z,12.30
2023-06-30T23:57:34.005Z,13.65
